sensor_id;sensor_type;location;lat;lon;timestamp;P1;durP1;ratioP1;P2;durP2;ratioP2
30287;SDS011;17103;48.316;11.558;2023-03-14T00:58:14;0.28;;;0.10;;
30287;SDS011;17103;48.316;11.558;2023-03-14T01:00:42;0.85;;;0.10;;
30287;SDS011;17103;48.316;11.558;2023-03-14T01:03:11;0.03;;;0.03;;
30287;SDS011;17103;48.316;11.558;2023-03-14T01:05:39;0.17;;;0.10;;
30287;SDS011;17103;48.316;11.558;2023-03-14T01:08:07;1.75;;;0.10;;
30287;SDS011;17103;48.316;11.558;2023-03-14T01:10:34;0.17;;;0.10;;
30287;SDS011;17103;48.316;11.558;2023-03-14T01:13:03;0.00;;;0.00;;
30287;SDS011;17103;48.316;11.558;2023-03-14T01:15:28;0.25;;;0.03;;
30287;SDS011;17103;48.316;11.558;2023-03-14T01:17:54;0.22;;;0.03;;
30287;SDS011;17103;48.316;11.558;2023-03-14T01:20:20;0.10;;;0.00;;
30287;SDS011;17103;48.316;11.558;2023-03-14T01:22:46;0.20;;;0.10;;
30287;SDS011;17103;48.316;11.558;2023-03-14T01:25:12;0.20;;;0.00;;
30287;SDS011;17103;48.316;11.558;2023-03-14T01:27:40;0.10;;;0.05;;
30287;SDS011;17103;48.316;11.558;2023-03-14T01:30:09;0.20;;;0.05;;
30287;SDS011;17103;48.316;11.558;2023-03-14T01:32:46;0.22;;;0.00;;
30287;SDS011;17103;48.316;11.558;2023-03-14T01:35:15;0.10;;;0.00;;
30287;SDS011;17103;48.316;11.558;2023-03-14T01:37:41;0.03;;;0.00;;
30287;SDS011;17103;48.316;11.558;2023-03-14T01:40:08;0.00;;;0.00;;
30287;SDS011;17103;48.316;11.558;2023-03-14T01:42:46;0.47;;;0.00;;
30287;SDS011;17103;48.316;11.558;2023-03-14T01:48:26;0.98;;;0.10;;
30287;SDS011;17103;48.316;11.558;2023-03-14T01:50:56;0.17;;;0.03;;
30287;SDS011;17103;48.316;11.558;2023-03-14T01:53:25;0.38;;;0.10;;
30287;SDS011;17103;48.316;11.558;2023-03-14T01:55:52;0.55;;;0.10;;
30287;SDS011;17103;48.316;11.558;2023-03-14T01:58:21;1.08;;;0.10;;
30287;SDS011;17103;48.316;11.558;2023-03-14T02:00:49;0.80;;;0.32;;
30287;SDS011;17103;48.316;11.558;2023-03-14T02:03:16;0.52;;;0.00;;
30287;SDS011;17103;48.316;11.558;2023-03-14T02:05:44;2.20;;;0.10;;
30287;SDS011;17103;48.316;11.558;2023-03-14T02:08:15;0.52;;;0.10;;
30287;SDS011;17103;48.316;11.558;2023-03-14T02:10:46;0.20;;;0.10;;
30287;SDS011;17103;48.316;11.558;2023-03-14T02:13:14;0.40;;;0.15;;
30287;SDS011;17103;48.316;11.558;2023-03-14T02:15:42;0.15;;;0.08;;
30287;SDS011;17103;48.316;11.558;2023-03-14T02:18:08;0.35;;;0.05;;
30287;SDS011;17103;48.316;11.558;2023-03-14T02:23:26;2.80;;;0.10;;
30287;SDS011;17103;48.316;11.558;2023-03-14T02:25:57;1.73;;;0.00;;
30287;SDS011;17103;48.316;11.558;2023-03-14T02:28:29;0.20;;;0.00;;
30287;SDS011;17103;48.316;11.558;2023-03-14T02:30:55;1.45;;;0.10;;
30287;SDS011;17103;48.316;11.558;2023-03-14T02:33:21;0.35;;;0.00;;
30287;SDS011;17103;48.316;11.558;2023-03-14T02:35:50;1.27;;;0.10;;
30287;SDS011;17103;48.316;11.558;2023-03-14T02:40:52;0.00;;;0.00;;
30287;SDS011;17103;48.316;11.558;2023-03-14T02:43:18;0.90;;;0.13;;
30287;SDS011;17103;48.316;11.558;2023-03-14T02:45:45;1.42;;;0.30;;
30287;SDS011;17103;48.316;11.558;2023-03-14T02:48:23;1.30;;;0.22;;
30287;SDS011;17103;48.316;11.558;2023-03-14T02:50:52;0.15;;;0.00;;
30287;SDS011;17103;48.316;11.558;2023-03-14T02:53:25;0.80;;;0.13;;
30287;SDS011;17103;48.316;11.558;2023-03-14T02:55:56;0.28;;;0.10;;
30287;SDS011;17103;48.316;11.558;2023-03-14T02:58:23;0.22;;;0.03;;
30287;SDS011;17103;48.316;11.558;2023-03-14T03:00:49;0.32;;;0.00;;
30287;SDS011;17103;48.316;11.558;2023-03-14T03:03:19;1.30;;;0.10;;
30287;SDS011;17103;48.316;11.558;2023-03-14T03:05:52;0.10;;;0.00;;
30287;SDS011;17103;48.316;11.558;2023-03-14T03:08:19;0.68;;;0.10;;
30287;SDS011;17103;48.316;11.558;2023-03-14T03:10:46;1.45;;;0.10;;
30287;SDS011;17103;48.316;11.558;2023-03-14T03:13:14;0.20;;;0.00;;
30287;SDS011;17103;48.316;11.558;2023-03-14T03:15:40;0.20;;;0.08;;
30287;SDS011;17103;48.316;11.558;2023-03-14T03:18:07;0.10;;;0.10;;
30287;SDS011;17103;48.316;11.558;2023-03-14T03:20:34;0.20;;;0.10;;
30287;SDS011;17103;48.316;11.558;2023-03-14T03:23:00;0.25;;;0.00;;
30287;SDS011;17103;48.316;11.558;2023-03-14T03:25:28;0.25;;;0.10;;
30287;SDS011;17103;48.316;11.558;2023-03-14T03:27:55;0.00;;;0.00;;
30287;SDS011;17103;48.316;11.558;2023-03-14T03:30:20;0.15;;;0.05;;
30287;SDS011;17103;48.316;11.558;2023-03-14T03:32:46;0.25;;;0.13;;
30287;SDS011;17103;48.316;11.558;2023-03-14T03:35:12;0.30;;;0.00;;
30287;SDS011;17103;48.316;11.558;2023-03-14T03:37:38;0.03;;;0.00;;
30287;SDS011;17103;48.316;11.558;2023-03-14T03:40:05;0.00;;;0.00;;
30287;SDS011;17103;48.316;11.558;2023-03-14T03:42:32;0.05;;;0.00;;
30287;SDS011;17103;48.316;11.558;2023-03-14T03:44:59;0.10;;;0.00;;
30287;SDS011;17103;48.316;11.558;2023-03-14T03:47:26;0.75;;;0.10;;
30287;SDS011;17103;48.316;11.558;2023-03-14T03:49:52;0.00;;;0.00;;
30287;SDS011;17103;48.316;11.558;2023-03-14T03:52:18;0.80;;;0.00;;
30287;SDS011;17103;48.316;11.558;2023-03-14T03:54:45;0.00;;;0.00;;
30287;SDS011;17103;48.316;11.558;2023-03-14T03:57:11;0.30;;;0.00;;
30287;SDS011;17103;48.316;11.558;2023-03-14T03:59:37;0.10;;;0.00;;
30287;SDS011;17103;48.316;11.558;2023-03-14T04:02:05;1.55;;;0.00;;
30287;SDS011;17103;48.316;11.558;2023-03-14T04:04:30;0.00;;;0.00;;
30287;SDS011;17103;48.316;11.558;2023-03-14T04:06:56;0.00;;;0.00;;
30287;SDS011;17103;48.316;11.558;2023-03-14T04:09:22;0.00;;;0.00;;
30287;SDS011;17103;48.316;11.558;2023-03-14T04:11:48;0.10;;;0.00;;
30287;SDS011;17103;48.316;11.558;2023-03-14T04:14:14;0.05;;;0.00;;
30287;SDS011;17103;48.316;11.558;2023-03-14T04:16:40;0.00;;;0.00;;
30287;SDS011;17103;48.316;11.558;2023-03-14T04:19:05;0.20;;;0.08;;
30287;SDS011;17103;48.316;11.558;2023-03-14T04:21:32;0.50;;;0.20;;
30287;SDS011;17103;48.316;11.558;2023-03-14T04:24:08;0.77;;;0.30;;
30287;SDS011;17103;48.316;11.558;2023-03-14T04:26:33;0.70;;;0.32;;
30287;SDS011;17103;48.316;11.558;2023-03-14T04:28:59;1.17;;;0.50;;
30287;SDS011;17103;48.316;11.558;2023-03-14T04:31:26;0.55;;;0.20;;
30287;SDS011;17103;48.316;11.558;2023-03-14T04:33:52;0.75;;;0.30;;
30287;SDS011;17103;48.316;11.558;2023-03-14T04:36:18;1.92;;;0.30;;
30287;SDS011;17103;48.316;11.558;2023-03-14T04:38:44;0.43;;;0.17;;
30287;SDS011;17103;48.316;11.558;2023-03-14T04:41:11;0.47;;;0.10;;
30287;SDS011;17103;48.316;11.558;2023-03-14T04:43:37;1.88;;;0.10;;
30287;SDS011;17103;48.316;11.558;2023-03-14T04:46:02;0.28;;;0.00;;
30287;SDS011;17103;48.316;11.558;2023-03-14T04:48:29;0.00;;;0.00;;
30287;SDS011;17103;48.316;11.558;2023-03-14T04:50:55;1.30;;;0.20;;
30287;SDS011;17103;48.316;11.558;2023-03-14T04:53:21;0.63;;;0.30;;
30287;SDS011;17103;48.316;11.558;2023-03-14T04:55:48;0.70;;;0.30;;
30287;SDS011;17103;48.316;11.558;2023-03-14T04:58:14;0.22;;;0.10;;
30287;SDS011;17103;48.316;11.558;2023-03-14T05:00:40;0.05;;;0.05;;
30287;SDS011;17103;48.316;11.558;2023-03-14T05:03:06;0.13;;;0.10;;
30287;SDS011;17103;48.316;11.558;2023-03-14T05:05:32;0.22;;;0.00;;
30287;SDS011;17103;48.316;11.558;2023-03-14T05:07:57;0.03;;;0.00;;
30287;SDS011;17103;48.316;11.558;2023-03-14T05:10:23;0.20;;;0.00;;
30287;SDS011;17103;48.316;11.558;2023-03-14T05:12:49;0.32;;;0.08;;
30287;SDS011;17103;48.316;11.558;2023-03-14T05:15:14;0.00;;;0.00;;
30287;SDS011;17103;48.316;11.558;2023-03-14T05:17:40;2.67;;;0.20;;
30287;SDS011;17103;48.316;11.558;2023-03-14T05:20:06;0.10;;;0.10;;
30287;SDS011;17103;48.316;11.558;2023-03-14T05:22:38;0.63;;;0.10;;
30287;SDS011;17103;48.316;11.558;2023-03-14T05:25:06;0.40;;;0.20;;
30287;SDS011;17103;48.316;11.558;2023-03-14T05:27:32;0.28;;;0.20;;
30287;SDS011;17103;48.316;11.558;2023-03-14T05:29:58;0.22;;;0.10;;
30287;SDS011;17103;48.316;11.558;2023-03-14T05:32:24;0.00;;;0.00;;
30287;SDS011;17103;48.316;11.558;2023-03-14T05:38:19;0.40;;;0.03;;
30287;SDS011;17103;48.316;11.558;2023-03-14T05:40:51;0.03;;;0.00;;
30287;SDS011;17103;48.316;11.558;2023-03-14T05:43:17;0.10;;;0.00;;
30287;SDS011;17103;48.316;11.558;2023-03-14T05:49:20;0.13;;;0.10;;
30287;SDS011;17103;48.316;11.558;2023-03-14T05:51:46;0.00;;;0.00;;
30287;SDS011;17103;48.316;11.558;2023-03-14T05:54:12;0.30;;;0.10;;
30287;SDS011;17103;48.316;11.558;2023-03-14T05:59:40;1.20;;;0.10;;
30287;SDS011;17103;48.316;11.558;2023-03-14T06:05:28;0.10;;;0.00;;
30287;SDS011;17103;48.316;11.558;2023-03-14T06:07:54;0.30;;;0.17;;
30287;SDS011;17103;48.316;11.558;2023-03-14T06:10:20;0.43;;;0.10;;
30287;SDS011;17103;48.316;11.558;2023-03-14T06:12:45;0.00;;;0.00;;
30287;SDS011;17103;48.316;11.558;2023-03-14T06:15:11;0.38;;;0.20;;
30287;SDS011;17103;48.316;11.558;2023-03-14T06:17:38;0.22;;;0.13;;
30287;SDS011;17103;48.316;11.558;2023-03-14T07:06:33;0.00;;;0.00;;
30287;SDS011;17103;48.316;11.558;2023-03-14T07:08:59;3.00;;;0.20;;
30287;SDS011;17103;48.316;11.558;2023-03-14T07:11:25;0.40;;;0.20;;
30287;SDS011;17103;48.316;11.558;2023-03-14T07:13:51;0.40;;;0.10;;
30287;SDS011;17103;48.316;11.558;2023-03-14T07:16:17;0.73;;;0.30;;
30287;SDS011;17103;48.316;11.558;2023-03-14T07:18:42;3.88;;;1.10;;
30287;SDS011;17103;48.316;11.558;2023-03-14T07:21:08;0.08;;;0.08;;
30287;SDS011;17103;48.316;11.558;2023-03-14T07:23:34;0.85;;;0.40;;
30287;SDS011;17103;48.316;11.558;2023-03-14T07:26:01;0.30;;;0.10;;
30287;SDS011;17103;48.316;11.558;2023-03-14T07:28:29;0.10;;;0.10;;
30287;SDS011;17103;48.316;11.558;2023-03-14T07:30:57;0.63;;;0.10;;
30287;SDS011;17103;48.316;11.558;2023-03-14T07:33:23;0.32;;;0.10;;
30287;SDS011;17103;48.316;11.558;2023-03-14T07:35:48;0.00;;;0.00;;
30287;SDS011;17103;48.316;11.558;2023-03-14T07:38:14;1.23;;;0.10;;
30287;SDS011;17103;48.316;11.558;2023-03-14T07:40:41;0.65;;;0.15;;
30287;SDS011;17103;48.316;11.558;2023-03-14T07:43:07;1.02;;;0.30;;
30287;SDS011;17103;48.316;11.558;2023-03-14T07:45:33;0.38;;;0.10;;
30287;SDS011;17103;48.316;11.558;2023-03-14T07:47:58;0.73;;;0.30;;
30287;SDS011;17103;48.316;11.558;2023-03-14T07:50:25;0.10;;;0.10;;
30287;SDS011;17103;48.316;11.558;2023-03-14T07:52:51;1.05;;;0.20;;
30287;SDS011;17103;48.316;11.558;2023-03-14T07:55:17;0.30;;;0.10;;
30287;SDS011;17103;48.316;11.558;2023-03-14T07:57:43;0.13;;;0.03;;
30287;SDS011;17103;48.316;11.558;2023-03-14T08:00:09;0.10;;;0.00;;
30287;SDS011;17103;48.316;11.558;2023-03-14T08:02:36;0.63;;;0.10;;
30287;SDS011;17103;48.316;11.558;2023-03-14T08:05:02;0.10;;;0.00;;
30287;SDS011;17103;48.316;11.558;2023-03-14T08:07:28;2.30;;;0.30;;
30287;SDS011;17103;48.316;11.558;2023-03-14T08:09:54;5.30;;;1.98;;
30287;SDS011;17103;48.316;11.558;2023-03-14T08:12:20;6.40;;;1.73;;
30287;SDS011;17103;48.316;11.558;2023-03-14T08:18:13;1.75;;;0.55;;
30287;SDS011;17103;48.316;11.558;2023-03-14T08:37:55;1.35;;;0.50;;
30287;SDS011;17103;48.316;11.558;2023-03-14T08:43:39;0.13;;;0.10;;
30287;SDS011;17103;48.316;11.558;2023-03-14T08:46:13;1.33;;;0.17;;
30287;SDS011;17103;48.316;11.558;2023-03-14T08:48:42;0.40;;;0.10;;
30287;SDS011;17103;48.316;11.558;2023-03-14T08:51:32;0.70;;;0.10;;
30287;SDS011;17103;48.316;11.558;2023-03-14T08:54:23;0.35;;;0.13;;
30287;SDS011;17103;48.316;11.558;2023-03-14T08:57:02;0.80;;;0.20;;
30287;SDS011;17103;48.316;11.558;2023-03-14T08:59:30;0.38;;;0.20;;
30287;SDS011;17103;48.316;11.558;2023-03-14T09:01:59;0.60;;;0.30;;
30287;SDS011;17103;48.316;11.558;2023-03-14T09:04:36;0.25;;;0.10;;
30287;SDS011;17103;48.316;11.558;2023-03-14T09:07:07;1.10;;;0.10;;
30287;SDS011;17103;48.316;11.558;2023-03-14T09:09:33;0.90;;;0.10;;
30287;SDS011;17103;48.316;11.558;2023-03-14T09:12:10;0.52;;;0.20;;
30287;SDS011;17103;48.316;11.558;2023-03-14T09:14:45;0.30;;;0.10;;
30287;SDS011;17103;48.316;11.558;2023-03-14T09:17:28;0.00;;;0.00;;
30287;SDS011;17103;48.316;11.558;2023-03-14T09:22:57;1.20;;;0.10;;
30287;SDS011;17103;48.316;11.558;2023-03-14T09:25:27;0.03;;;0.00;;
30287;SDS011;17103;48.316;11.558;2023-03-14T09:27:54;0.88;;;0.10;;
30287;SDS011;17103;48.316;11.558;2023-03-14T09:30:29;0.68;;;0.10;;
30287;SDS011;17103;48.316;11.558;2023-03-14T09:32:58;0.20;;;0.10;;
30287;SDS011;17103;48.316;11.558;2023-03-14T09:35:24;1.95;;;0.10;;
30287;SDS011;17103;48.316;11.558;2023-03-14T09:37:51;0.17;;;0.10;;
30287;SDS011;17103;48.316;11.558;2023-03-14T09:40:17;0.38;;;0.10;;
30287;SDS011;17103;48.316;11.558;2023-03-14T09:42:48;0.10;;;0.10;;
30287;SDS011;17103;48.316;11.558;2023-03-14T09:45:28;0.80;;;0.10;;
30287;SDS011;17103;48.316;11.558;2023-03-14T09:48:01;1.88;;;0.17;;
30287;SDS011;17103;48.316;11.558;2023-03-14T09:56:23;3.22;;;0.10;;
30287;SDS011;17103;48.316;11.558;2023-03-14T09:58:57;0.38;;;0.00;;
30287;SDS011;17103;48.316;11.558;2023-03-14T10:01:56;0.17;;;0.10;;
30287;SDS011;17103;48.316;11.558;2023-03-14T10:04:47;1.55;;;0.10;;
30287;SDS011;17103;48.316;11.558;2023-03-14T10:11:20;0.20;;;0.00;;
30287;SDS011;17103;48.316;11.558;2023-03-14T10:17:18;0.98;;;0.13;;
30287;SDS011;17103;48.316;11.558;2023-03-14T10:19:58;0.20;;;0.10;;
30287;SDS011;17103;48.316;11.558;2023-03-14T10:29:19;0.60;;;0.10;;
30287;SDS011;17103;48.316;11.558;2023-03-14T10:41:19;0.30;;;0.08;;
30287;SDS011;17103;48.316;11.558;2023-03-14T11:14:48;0.25;;;0.10;;
30287;SDS011;17103;48.316;11.558;2023-03-14T11:20:57;1.10;;;0.20;;
30287;SDS011;17103;48.316;11.558;2023-03-14T11:26:26;0.10;;;0.00;;
30287;SDS011;17103;48.316;11.558;2023-03-14T11:31:45;0.10;;;0.00;;
30287;SDS011;17103;48.316;11.558;2023-03-14T11:37:00;0.35;;;0.17;;
30287;SDS011;17103;48.316;11.558;2023-03-14T11:39:39;0.55;;;0.20;;
30287;SDS011;17103;48.316;11.558;2023-03-14T11:42:09;0.63;;;0.00;;
30287;SDS011;17103;48.316;11.558;2023-03-14T11:44:40;0.35;;;0.00;;
30287;SDS011;17103;48.316;11.558;2023-03-14T11:47:29;0.10;;;0.10;;
30287;SDS011;17103;48.316;11.558;2023-03-14T11:50:04;0.43;;;0.10;;
30287;SDS011;17103;48.316;11.558;2023-03-14T12:06:53;0.20;;;0.10;;
30287;SDS011;17103;48.316;11.558;2023-03-14T12:09:22;0.08;;;0.00;;
30287;SDS011;17103;48.316;11.558;2023-03-14T12:15:21;2.83;;;0.22;;
30287;SDS011;17103;48.316;11.558;2023-03-14T12:18:11;0.20;;;0.20;;
30287;SDS011;17103;48.316;11.558;2023-03-14T12:21:00;0.03;;;0.00;;
30287;SDS011;17103;48.316;11.558;2023-03-14T12:23:34;0.00;;;0.00;;
30287;SDS011;17103;48.316;11.558;2023-03-14T12:26:06;0.00;;;0.00;;
30287;SDS011;17103;48.316;11.558;2023-03-14T12:28:39;0.00;;;0.00;;
30287;SDS011;17103;48.316;11.558;2023-03-14T12:34:42;0.30;;;0.10;;
30287;SDS011;17103;48.316;11.558;2023-03-14T12:39:19;0.88;;;0.10;;
30287;SDS011;17103;48.316;11.558;2023-03-14T12:41:52;1.02;;;0.30;;
30287;SDS011;17103;48.316;11.558;2023-03-14T12:46:58;1.40;;;0.50;;
30287;SDS011;17103;48.316;11.558;2023-03-14T12:50:00;0.00;;;0.00;;
30287;SDS011;17103;48.316;11.558;2023-03-14T12:53:24;0.20;;;0.10;;
30287;SDS011;17103;48.316;11.558;2023-03-14T12:56:27;0.30;;;0.00;;
30287;SDS011;17103;48.316;11.558;2023-03-14T12:59:57;0.00;;;0.00;;
30287;SDS011;17103;48.316;11.558;2023-03-14T13:17:37;0.03;;;0.00;;
30287;SDS011;17103;48.316;11.558;2023-03-14T13:24:23;0.10;;;0.00;;
30287;SDS011;17103;48.316;11.558;2023-03-14T13:26:54;0.20;;;0.00;;
30287;SDS011;17103;48.316;11.558;2023-03-14T13:29:24;2.55;;;0.08;;
30287;SDS011;17103;48.316;11.558;2023-03-14T13:32:20;0.00;;;0.00;;
30287;SDS011;17103;48.316;11.558;2023-03-14T13:41:34;0.50;;;0.00;;
30287;SDS011;17103;48.316;11.558;2023-03-14T13:45:15;0.05;;;0.00;;
30287;SDS011;17103;48.316;11.558;2023-03-14T13:47:41;0.00;;;0.00;;
30287;SDS011;17103;48.316;11.558;2023-03-14T13:50:26;2.38;;;0.00;;
30287;SDS011;17103;48.316;11.558;2023-03-14T13:52:56;0.00;;;0.00;;
30287;SDS011;17103;48.316;11.558;2023-03-14T13:55:41;0.40;;;0.00;;
30287;SDS011;17103;48.316;11.558;2023-03-14T13:58:20;0.22;;;0.00;;
30287;SDS011;17103;48.316;11.558;2023-03-14T14:00:53;0.30;;;0.10;;
30287;SDS011;17103;48.316;11.558;2023-03-14T14:03:44;0.32;;;0.00;;
30287;SDS011;17103;48.316;11.558;2023-03-14T14:06:29;0.80;;;0.30;;
30287;SDS011;17103;48.316;11.558;2023-03-14T14:23:36;0.65;;;0.00;;
30287;SDS011;17103;48.316;11.558;2023-03-14T14:47:21;0.40;;;0.00;;
30287;SDS011;17103;48.316;11.558;2023-03-14T14:49:53;0.67;;;0.00;;
30287;SDS011;17103;48.316;11.558;2023-03-14T14:52:22;0.20;;;0.10;;
30287;SDS011;17103;48.316;11.558;2023-03-14T14:55:40;0.75;;;0.10;;
30287;SDS011;17103;48.316;11.558;2023-03-14T14:58:26;0.10;;;0.10;;
30287;SDS011;17103;48.316;11.558;2023-03-14T15:01:03;0.10;;;0.10;;
30287;SDS011;17103;48.316;11.558;2023-03-14T15:03:31;0.40;;;0.20;;
30287;SDS011;17103;48.316;11.558;2023-03-14T15:05:58;0.43;;;0.20;;
30287;SDS011;17103;48.316;11.558;2023-03-14T15:08:24;0.30;;;0.03;;
30287;SDS011;17103;48.316;11.558;2023-03-14T15:10:51;0.20;;;0.20;;
30287;SDS011;17103;48.316;11.558;2023-03-14T15:13:18;3.08;;;1.27;;
30287;SDS011;17103;48.316;11.558;2023-03-14T15:15:44;0.90;;;0.45;;
30287;SDS011;17103;48.316;11.558;2023-03-14T15:18:15;1.13;;;0.40;;
30287;SDS011;17103;48.316;11.558;2023-03-14T15:20:43;0.57;;;0.30;;
30287;SDS011;17103;48.316;11.558;2023-03-14T15:23:10;1.25;;;0.50;;
30287;SDS011;17103;48.316;11.558;2023-03-14T15:25:37;1.83;;;0.40;;
30287;SDS011;17103;48.316;11.558;2023-03-14T15:28:09;0.70;;;0.30;;
30287;SDS011;17103;48.316;11.558;2023-03-14T15:30:45;0.30;;;0.20;;
30287;SDS011;17103;48.316;11.558;2023-03-14T15:33:12;1.40;;;0.28;;
30287;SDS011;17103;48.316;11.558;2023-03-14T15:35:38;0.17;;;0.13;;
30287;SDS011;17103;48.316;11.558;2023-03-14T15:38:03;1.20;;;0.60;;
30287;SDS011;17103;48.316;11.558;2023-03-14T15:40:30;0.25;;;0.20;;
30287;SDS011;17103;48.316;11.558;2023-03-14T15:42:55;0.10;;;0.10;;
30287;SDS011;17103;48.316;11.558;2023-03-14T15:45:21;0.52;;;0.10;;
30287;SDS011;17103;48.316;11.558;2023-03-14T15:47:47;1.10;;;0.35;;
30287;SDS011;17103;48.316;11.558;2023-03-14T15:50:14;2.60;;;0.38;;
30287;SDS011;17103;48.316;11.558;2023-03-14T15:52:39;0.45;;;0.20;;
30287;SDS011;17103;48.316;11.558;2023-03-14T15:55:06;1.98;;;0.13;;
30287;SDS011;17103;48.316;11.558;2023-03-14T15:57:32;1.00;;;0.50;;
30287;SDS011;17103;48.316;11.558;2023-03-14T15:59:58;1.40;;;0.30;;
30287;SDS011;17103;48.316;11.558;2023-03-14T16:02:24;1.15;;;0.50;;
30287;SDS011;17103;48.316;11.558;2023-03-14T16:04:49;2.60;;;0.55;;
30287;SDS011;17103;48.316;11.558;2023-03-14T16:07:15;0.50;;;0.20;;
30287;SDS011;17103;48.316;11.558;2023-03-14T16:09:41;1.33;;;0.30;;
30287;SDS011;17103;48.316;11.558;2023-03-14T16:12:07;0.22;;;0.10;;
30287;SDS011;17103;48.316;11.558;2023-03-14T16:17:07;1.73;;;0.65;;
30287;SDS011;17103;48.316;11.558;2023-03-14T16:19:36;2.40;;;0.50;;
30287;SDS011;17103;48.316;11.558;2023-03-14T16:22:02;0.45;;;0.20;;
30287;SDS011;17103;48.316;11.558;2023-03-14T16:24:28;0.30;;;0.20;;
30287;SDS011;17103;48.316;11.558;2023-03-14T16:26:54;2.08;;;0.40;;
30287;SDS011;17103;48.316;11.558;2023-03-14T16:29:20;2.58;;;0.45;;
30287;SDS011;17103;48.316;11.558;2023-03-14T16:31:45;0.82;;;0.43;;
30287;SDS011;17103;48.316;11.558;2023-03-14T16:34:13;1.67;;;0.20;;
30287;SDS011;17103;48.316;11.558;2023-03-14T16:36:39;1.98;;;0.28;;
30287;SDS011;17103;48.316;11.558;2023-03-14T16:39:06;1.50;;;0.30;;
30287;SDS011;17103;48.316;11.558;2023-03-14T16:41:31;0.63;;;0.20;;
30287;SDS011;17103;48.316;11.558;2023-03-14T16:43:57;2.08;;;0.30;;
30287;SDS011;17103;48.316;11.558;2023-03-14T16:46:23;0.80;;;0.10;;
30287;SDS011;17103;48.316;11.558;2023-03-14T16:48:51;0.80;;;0.30;;
30287;SDS011;17103;48.316;11.558;2023-03-14T16:51:18;1.50;;;0.40;;
30287;SDS011;17103;48.316;11.558;2023-03-14T16:53:44;1.27;;;0.40;;
30287;SDS011;17103;48.316;11.558;2023-03-14T16:56:09;0.73;;;0.20;;
30287;SDS011;17103;48.316;11.558;2023-03-14T16:58:36;2.00;;;0.57;;
30287;SDS011;17103;48.316;11.558;2023-03-14T17:01:09;2.28;;;0.95;;
30287;SDS011;17103;48.316;11.558;2023-03-14T17:03:41;5.03;;;1.05;;
30287;SDS011;17103;48.316;11.558;2023-03-14T17:06:09;5.60;;;0.40;;
30287;SDS011;17103;48.316;11.558;2023-03-14T17:08:36;1.35;;;0.30;;
30287;SDS011;17103;48.316;11.558;2023-03-14T17:11:02;1.88;;;0.20;;
30287;SDS011;17103;48.316;11.558;2023-03-14T17:13:29;1.75;;;0.30;;
30287;SDS011;17103;48.316;11.558;2023-03-14T17:15:55;0.30;;;0.10;;
30287;SDS011;17103;48.316;11.558;2023-03-14T17:18:25;2.08;;;0.30;;
30287;SDS011;17103;48.316;11.558;2023-03-14T17:20:54;1.27;;;0.20;;
30287;SDS011;17103;48.316;11.558;2023-03-14T17:23:21;1.60;;;0.20;;
30287;SDS011;17103;48.316;11.558;2023-03-14T17:25:49;1.80;;;0.20;;
30287;SDS011;17103;48.316;11.558;2023-03-14T17:28:16;0.65;;;0.20;;
30287;SDS011;17103;48.316;11.558;2023-03-14T17:30:42;3.35;;;0.30;;
30287;SDS011;17103;48.316;11.558;2023-03-14T17:33:08;3.03;;;0.60;;
30287;SDS011;17103;48.316;11.558;2023-03-14T17:35:35;1.45;;;0.40;;
30287;SDS011;17103;48.316;11.558;2023-03-14T17:38:01;1.40;;;0.25;;
30287;SDS011;17103;48.316;11.558;2023-03-14T17:40:27;3.47;;;0.75;;
30287;SDS011;17103;48.316;11.558;2023-03-14T17:42:53;0.82;;;0.35;;
30287;SDS011;17103;48.316;11.558;2023-03-14T17:45:19;2.17;;;0.60;;
30287;SDS011;17103;48.316;11.558;2023-03-14T17:47:45;4.53;;;1.02;;
30287;SDS011;17103;48.316;11.558;2023-03-14T17:50:11;4.90;;;0.68;;
30287;SDS011;17103;48.316;11.558;2023-03-14T17:52:38;1.23;;;0.20;;
30287;SDS011;17103;48.316;11.558;2023-03-14T17:55:04;2.40;;;0.28;;
30287;SDS011;17103;48.316;11.558;2023-03-14T17:57:32;5.38;;;0.50;;
30287;SDS011;17103;48.316;11.558;2023-03-14T18:00:00;2.22;;;0.70;;
30287;SDS011;17103;48.316;11.558;2023-03-14T18:02:25;3.95;;;0.60;;
30287;SDS011;17103;48.316;11.558;2023-03-14T18:04:51;1.27;;;0.60;;
30287;SDS011;17103;48.316;11.558;2023-03-14T18:07:17;0.95;;;0.40;;
30287;SDS011;17103;48.316;11.558;2023-03-14T18:09:44;1.77;;;0.90;;
30287;SDS011;17103;48.316;11.558;2023-03-14T18:12:10;4.18;;;1.90;;
30287;SDS011;17103;48.316;11.558;2023-03-14T18:14:36;2.25;;;0.93;;
30287;SDS011;17103;48.316;11.558;2023-03-14T18:17:02;2.03;;;1.38;;
30287;SDS011;17103;48.316;11.558;2023-03-14T18:19:29;1.60;;;0.70;;
30287;SDS011;17103;48.316;11.558;2023-03-14T18:21:55;2.03;;;0.65;;
30287;SDS011;17103;48.316;11.558;2023-03-14T18:24:21;2.65;;;0.47;;
30287;SDS011;17103;48.316;11.558;2023-03-14T18:26:46;2.63;;;0.60;;
30287;SDS011;17103;48.316;11.558;2023-03-14T18:29:13;2.45;;;0.90;;
30287;SDS011;17103;48.316;11.558;2023-03-14T18:31:42;1.52;;;0.68;;
30287;SDS011;17103;48.316;11.558;2023-03-14T18:34:09;1.52;;;0.90;;
30287;SDS011;17103;48.316;11.558;2023-03-14T18:36:35;2.05;;;0.52;;
30287;SDS011;17103;48.316;11.558;2023-03-14T18:39:01;3.58;;;0.90;;
30287;SDS011;17103;48.316;11.558;2023-03-14T18:41:30;1.98;;;0.50;;
30287;SDS011;17103;48.316;11.558;2023-03-14T18:43:56;2.10;;;0.50;;
30287;SDS011;17103;48.316;11.558;2023-03-14T18:46:22;2.33;;;0.50;;
30287;SDS011;17103;48.316;11.558;2023-03-14T18:48:54;2.15;;;0.45;;
30287;SDS011;17103;48.316;11.558;2023-03-14T18:51:27;1.25;;;0.30;;
30287;SDS011;17103;48.316;11.558;2023-03-14T18:53:56;0.73;;;0.38;;
30287;SDS011;17103;48.316;11.558;2023-03-14T18:56:23;2.75;;;0.70;;
30287;SDS011;17103;48.316;11.558;2023-03-14T18:58:49;2.35;;;0.60;;
30287;SDS011;17103;48.316;11.558;2023-03-14T19:01:15;1.63;;;0.60;;
30287;SDS011;17103;48.316;11.558;2023-03-14T19:03:44;0.90;;;0.50;;
30287;SDS011;17103;48.316;11.558;2023-03-14T19:06:13;2.10;;;0.95;;
30287;SDS011;17103;48.316;11.558;2023-03-14T19:08:40;4.53;;;0.80;;
30287;SDS011;17103;48.316;11.558;2023-03-14T19:11:07;3.65;;;1.00;;
30287;SDS011;17103;48.316;11.558;2023-03-14T19:13:35;1.08;;;0.63;;
30287;SDS011;17103;48.316;11.558;2023-03-14T19:16:02;2.05;;;0.75;;
30287;SDS011;17103;48.316;11.558;2023-03-14T19:18:28;4.20;;;0.80;;
30287;SDS011;17103;48.316;11.558;2023-03-14T19:21:01;2.67;;;0.82;;
30287;SDS011;17103;48.316;11.558;2023-03-14T19:23:28;3.95;;;0.90;;
30287;SDS011;17103;48.316;11.558;2023-03-14T19:25:56;0.52;;;0.40;;
30287;SDS011;17103;48.316;11.558;2023-03-14T19:28:22;3.97;;;1.10;;
30287;SDS011;17103;48.316;11.558;2023-03-14T19:30:51;3.47;;;1.23;;
30287;SDS011;17103;48.316;11.558;2023-03-14T19:33:18;3.13;;;0.98;;
30287;SDS011;17103;48.316;11.558;2023-03-14T19:35:44;3.67;;;1.20;;
30287;SDS011;17103;48.316;11.558;2023-03-14T19:38:10;4.15;;;1.30;;
30287;SDS011;17103;48.316;11.558;2023-03-14T19:40:37;3.50;;;1.15;;
30287;SDS011;17103;48.316;11.558;2023-03-14T19:43:04;6.45;;;3.70;;
30287;SDS011;17103;48.316;11.558;2023-03-14T19:45:30;2.88;;;1.20;;
30287;SDS011;17103;48.316;11.558;2023-03-14T19:48:00;4.72;;;1.13;;
30287;SDS011;17103;48.316;11.558;2023-03-14T19:50:28;3.08;;;1.60;;
30287;SDS011;17103;48.316;11.558;2023-03-14T19:52:55;3.00;;;1.15;;
30287;SDS011;17103;48.316;11.558;2023-03-14T19:55:23;2.85;;;1.02;;
30287;SDS011;17103;48.316;11.558;2023-03-14T19:57:50;3.42;;;1.27;;
30287;SDS011;17103;48.316;11.558;2023-03-14T20:00:18;3.67;;;0.85;;
30287;SDS011;17103;48.316;11.558;2023-03-14T20:02:45;1.27;;;0.60;;